sensor_id;sensor_type;location;lat;lon;timestamp;pressure;altitude;pressure_sealevel;temperature;humidity
39897;BME280;25567;48.276;14.242;2022-08-03T00:00:41;98574.69;;;17.69;100.00
39897;BME280;25567;48.276;14.242;2022-08-03T00:03:21;98577.66;;;17.67;100.00
39897;BME280;25567;48.276;14.242;2022-08-03T00:06:08;98577.66;;;17.62;100.00
39897;BME280;25567;48.276;14.242;2022-08-03T00:08:48;98585.69;;;17.62;100.00
39897;BME280;25567;48.276;14.242;2022-08-03T00:11:38;98579.53;;;17.62;100.00
39897;BME280;25567;48.276;14.242;2022-08-03T00:14:18;98581.44;;;17.61;100.00
39897;BME280;25567;48.276;14.242;2022-08-03T00:17:05;98583.84;;;17.58;100.00
39897;BME280;25567;48.276;14.242;2022-08-03T00:19:45;98578.22;;;17.54;100.00
39897;BME280;25567;48.276;14.242;2022-08-03T00:22:34;98577.16;;;17.40;100.00
39897;BME280;25567;48.276;14.242;2022-08-03T00:25:14;98571.78;;;17.45;100.00
39897;BME280;25567;48.276;14.242;2022-08-03T00:28:08;98577.69;;;17.42;100.00
39897;BME280;25567;48.276;14.242;2022-08-03T00:30:41;98585.19;;;17.40;100.00
39897;BME280;25567;48.276;14.242;2022-08-03T00:33:35;98585.19;;;17.34;100.00
39897;BME280;25567;48.276;14.242;2022-08-03T00:36:28;98584.41;;;17.29;100.00
39897;BME280;25567;48.276;14.242;2022-08-03T00:39:22;98582.28;;;17.26;100.00
39897;BME280;25567;48.276;14.242;2022-08-03T00:42:16;98584.41;;;17.24;100.00
39897;BME280;25567;48.276;14.242;2022-08-03T00:44:49;98589.78;;;17.24;100.00
39897;BME280;25567;48.276;14.242;2022-08-03T00:47:44;98588.44;;;17.21;100.00
39897;BME280;25567;48.276;14.242;2022-08-03T00:50:25;98582.28;;;17.21;100.00
39897;BME280;25567;48.276;14.242;2022-08-03T00:53:20;98579.31;;;17.17;100.00
39897;BME280;25567;48.276;14.242;2022-08-03T00:55:53;98586.84;;;17.15;100.00
39897;BME280;25567;48.276;14.242;2022-08-03T00:58:47;98585.22;;;17.14;100.00
39897;BME280;25567;48.276;14.242;2022-08-03T01:01:28;98579.06;;;17.08;100.00
39897;BME280;25567;48.276;14.242;2022-08-03T01:04:22;98583.59;;;16.97;100.00
39897;BME280;25567;48.276;14.242;2022-08-03T01:07:16;98580.91;;;16.97;100.00
39897;BME280;25567;48.276;14.242;2022-08-03T01:13:34;98588.72;;;16.94;100.00
39897;BME280;25567;48.276;14.242;2022-08-03T01:22:39;98580.94;;;16.92;100.00
39897;BME280;25567;48.276;14.242;2022-08-03T01:25:35;98579.84;;;16.93;100.00
39897;BME280;25567;48.276;14.242;2022-08-03T01:31:41;98577.66;;;16.80;100.00
39897;BME280;25567;48.276;14.242;2022-08-03T01:34:54;98576.59;;;16.71;100.00
39897;BME280;25567;48.276;14.242;2022-08-03T01:37:41;98578.22;;;16.77;100.00
39897;BME280;25567;48.276;14.242;2022-08-03T01:40:39;98570.69;;;16.63;100.00
39897;BME280;25567;48.276;14.242;2022-08-03T01:43:16;98576.06;;;16.74;100.00
39897;BME280;25567;48.276;14.242;2022-08-03T01:46:31;98578.22;;;16.77;100.00
39897;BME280;25567;48.276;14.242;2022-08-03T01:49:12;98579.53;;;16.74;100.00
39897;BME280;25567;48.276;14.242;2022-08-03T01:52:02;98581.41;;;16.68;100.00
39897;BME280;25567;48.276;14.242;2022-08-03T01:54:44;98579.53;;;16.69;100.00
39897;BME280;25567;48.276;14.242;2022-08-03T01:57:32;98580.31;;;16.70;100.00
39897;BME280;25567;48.276;14.242;2022-08-03T02:00:35;98574.72;;;16.66;100.00
39897;BME280;25567;48.276;14.242;2022-08-03T02:03:30;98580.31;;;16.59;100.00
39897;BME280;25567;48.276;14.242;2022-08-03T02:06:08;98573.88;;;16.60;100.00
39897;BME280;25567;48.276;14.242;2022-08-03T02:09:23;98576.03;;;16.58;100.00
39897;BME280;25567;48.276;14.242;2022-08-03T02:11:56;98566.38;;;16.57;100.00
39897;BME280;25567;48.276;14.242;2022-08-03T02:14:52;98574.13;;;16.48;100.00
39897;BME280;25567;48.276;14.242;2022-08-03T02:17:33;98578.69;;;16.48;100.00
39897;BME280;25567;48.276;14.242;2022-08-03T02:20:29;98573.31;;;16.48;100.00
39897;BME280;25567;48.276;14.242;2022-08-03T02:23:14;98570.13;;;16.46;100.00
39897;BME280;25567;48.276;14.242;2022-08-03T02:26:10;98569.56;;;16.44;100.00
39897;BME280;25567;48.276;14.242;2022-08-03T02:28:47;98559.94;;;16.43;100.00
39897;BME280;25567;48.276;14.242;2022-08-03T02:31:45;98564.19;;;16.39;100.00
39897;BME280;25567;48.276;14.242;2022-08-03T02:34:28;98568.75;;;16.38;100.00
39897;BME280;25567;48.276;14.242;2022-08-03T02:37:25;98566.84;;;16.33;100.00
39897;BME280;25567;48.276;14.242;2022-08-03T02:40:14;98566.28;;;16.21;100.00
39897;BME280;25567;48.276;14.242;2022-08-03T02:43:10;98560.41;;;16.24;100.00
39897;BME280;25567;48.276;14.242;2022-08-03T02:45:46;98563.09;;;16.29;100.00
39897;BME280;25567;48.276;14.242;2022-08-03T02:48:41;98563.91;;;16.25;100.00
39897;BME280;25567;48.276;14.242;2022-08-03T02:51:18;98559.63;;;16.29;100.00
39897;BME280;25567;48.276;14.242;2022-08-03T02:54:14;98555.06;;;16.29;100.00
39897;BME280;25567;48.276;14.242;2022-08-03T02:56:51;98554.00;;;16.30;100.00
39897;BME280;25567;48.276;14.242;2022-08-03T02:59:45;98557.72;;;16.19;100.00
39897;BME280;25567;48.276;14.242;2022-08-03T03:02:19;98559.03;;;16.11;100.00
39897;BME280;25567;48.276;14.242;2022-08-03T03:05:13;98556.91;;;16.18;100.00
39897;BME280;25567;48.276;14.242;2022-08-03T03:08:07;98553.97;;;16.20;100.00
39897;BME280;25567;48.276;14.242;2022-08-03T03:11:08;98548.63;;;16.20;100.00
39897;BME280;25567;48.276;14.242;2022-08-03T03:13:43;98556.38;;;16.22;100.00
39897;BME280;25567;48.276;14.242;2022-08-03T03:16:39;98550.19;;;16.11;100.00
39897;BME280;25567;48.276;14.242;2022-08-03T03:19:14;98562.50;;;16.07;100.00
39897;BME280;25567;48.276;14.242;2022-08-03T03:22:09;98562.25;;;16.13;100.00
39897;BME280;25567;48.276;14.242;2022-08-03T03:24:43;98569.22;;;16.14;100.00
39897;BME280;25567;48.276;14.242;2022-08-03T03:27:24;98557.97;;;16.12;100.00
39897;BME280;25567;48.276;14.242;2022-08-03T03:30:12;98571.34;;;16.12;100.00
39897;BME280;25567;48.276;14.242;2022-08-03T03:32:52;98564.34;;;16.01;100.00
39897;BME280;25567;48.276;14.242;2022-08-03T03:35:47;98562.50;;;16.07;100.00
39897;BME280;25567;48.276;14.242;2022-08-03T03:38:20;98564.91;;;16.08;100.00
39897;BME280;25567;48.276;14.242;2022-08-03T03:41:14;98566.41;;;15.89;100.00
39897;BME280;25567;48.276;14.242;2022-08-03T03:43:49;98565.34;;;15.90;100.00
39897;BME280;25567;48.276;14.242;2022-08-03T03:46:42;98565.53;;;15.78;100.00
39897;BME280;25567;48.276;14.242;2022-08-03T03:49:15;98563.09;;;15.71;100.00
39897;BME280;25567;48.276;14.242;2022-08-03T03:52:09;98564.44;;;15.74;100.00
39897;BME280;25567;48.276;14.242;2022-08-03T03:54:44;98568.28;;;15.83;100.00
39897;BME280;25567;48.276;14.242;2022-08-03T03:57:40;98577.28;;;15.77;100.00
39897;BME280;25567;48.276;14.242;2022-08-03T04:00:15;98572.03;;;15.87;100.00
39897;BME280;25567;48.276;14.242;2022-08-03T04:03:10;98576.63;;;15.92;100.00
39897;BME280;25567;48.276;14.242;2022-08-03T04:05:43;98577.41;;;15.92;100.00
39897;BME280;25567;48.276;14.242;2022-08-03T04:08:52;98581.44;;;15.95;100.00
39897;BME280;25567;48.276;14.242;2022-08-03T04:11:51;98583.06;;;15.96;100.00
39897;BME280;25567;48.276;14.242;2022-08-03T04:14:38;98585.47;;;15.97;100.00
39897;BME280;25567;48.276;14.242;2022-08-03T04:17:19;98590.81;;;15.97;100.00
39897;BME280;25567;48.276;14.242;2022-08-03T04:20:08;98590.28;;;16.00;100.00
39897;BME280;25567;48.276;14.242;2022-08-03T04:22:50;98596.97;;;16.03;100.00
39897;BME280;25567;48.276;14.242;2022-08-03T04:25:55;98591.38;;;16.05;100.00
39897;BME280;25567;48.276;14.242;2022-08-03T04:28:31;98599.16;;;16.06;100.00
39897;BME280;25567;48.276;14.242;2022-08-03T04:31:25;98597.53;;;16.05;100.00
39897;BME280;25567;48.276;14.242;2022-08-03T04:34:06;98596.47;;;16.06;100.00
39897;BME280;25567;48.276;14.242;2022-08-03T04:36:58;98589.47;;;15.95;100.00
39897;BME280;25567;48.276;14.242;2022-08-03T04:39:41;98598.81;;;15.92;100.00
39897;BME280;25567;48.276;14.242;2022-08-03T04:42:37;98601.75;;;15.91;100.00
39897;BME280;25567;48.276;14.242;2022-08-03T04:45:18;98600.94;;;15.95;100.00
39897;BME280;25567;48.276;14.242;2022-08-03T04:48:13;98603.91;;;15.94;100.00
39897;BME280;25567;48.276;14.242;2022-08-03T04:50:53;98603.91;;;15.94;100.00
39897;BME280;25567;48.276;14.242;2022-08-03T04:53:43;98601.50;;;15.97;100.00
39897;BME280;25567;48.276;14.242;2022-08-03T04:56:22;98600.97;;;16.00;100.00
39897;BME280;25567;48.276;14.242;2022-08-03T04:59:10;98612.53;;;16.06;100.00
39897;BME280;25567;48.276;14.242;2022-08-03T05:01:50;98607.19;;;16.11;100.00
39897;BME280;25567;48.276;14.242;2022-08-03T05:04:37;98607.19;;;16.16;100.00
39897;BME280;25567;48.276;14.242;2022-08-03T05:07:19;98615.00;;;16.23;100.00
39897;BME280;25567;48.276;14.242;2022-08-03T05:10:15;98618.78;;;16.27;100.00
39897;BME280;25567;48.276;14.242;2022-08-03T05:12:55;98608.63;;;16.34;100.00
39897;BME280;25567;48.276;14.242;2022-08-03T05:15:49;98615.63;;;16.46;100.00
39897;BME280;25567;48.276;14.242;2022-08-03T05:18:29;98611.88;;;16.52;100.00
39897;BME280;25567;48.276;14.242;2022-08-03T05:21:16;98613.53;;;16.58;100.00
39897;BME280;25567;48.276;14.242;2022-08-03T05:24:13;98610.34;;;16.72;100.00
39897;BME280;25567;48.276;14.242;2022-08-03T05:27:07;98604.44;;;16.80;100.00
39897;BME280;25567;48.276;14.242;2022-08-03T05:29:40;98605.81;;;16.88;100.00
39897;BME280;25567;48.276;14.242;2022-08-03T05:32:34;98610.38;;;16.97;100.00
39897;BME280;25567;48.276;14.242;2022-08-03T05:35:07;98610.94;;;17.05;100.00
39897;BME280;25567;48.276;14.242;2022-08-03T05:38:21;98610.97;;;17.10;100.00
39897;BME280;25567;48.276;14.242;2022-08-03T05:41:15;98611.47;;;17.17;100.00
39897;BME280;25567;48.276;14.242;2022-08-03T05:44:09;98611.75;;;17.26;100.00
39897;BME280;25567;48.276;14.242;2022-08-03T05:47:04;98614.97;;;17.38;100.00
39897;BME280;25567;48.276;14.242;2022-08-03T05:49:37;98612.84;;;17.40;100.00
39897;BME280;25567;48.276;14.242;2022-08-03T05:52:31;98608.53;;;17.49;100.00
39897;BME280;25567;48.276;14.242;2022-08-03T05:55:06;98609.84;;;17.57;100.00
39897;BME280;25567;48.276;14.242;2022-08-03T05:58:01;98605.28;;;17.63;100.00
39897;BME280;25567;48.276;14.242;2022-08-03T06:00:35;98619.22;;;17.70;100.00
39897;BME280;25567;48.276;14.242;2022-08-03T06:03:29;98608.19;;;17.77;100.00
39897;BME280;25567;48.276;14.242;2022-08-03T06:06:02;98611.41;;;17.84;100.00
39897;BME280;25567;48.276;14.242;2022-08-03T06:08:56;98608.44;;;17.91;100.00
39897;BME280;25567;48.276;14.242;2022-08-03T06:11:36;98607.66;;;17.95;100.00
39897;BME280;25567;48.276;14.242;2022-08-03T06:14:30;98610.56;;;18.09;100.00
39897;BME280;25567;48.276;14.242;2022-08-03T06:17:03;98613.25;;;18.09;100.00
39897;BME280;25567;48.276;14.242;2022-08-03T06:19:57;98604.34;;;18.19;100.00
39897;BME280;25567;48.276;14.242;2022-08-03T06:22:37;98612.09;;;18.26;100.00
39897;BME280;25567;48.276;14.242;2022-08-03T06:25:39;98616.09;;;18.39;100.00
39897;BME280;25567;48.276;14.242;2022-08-03T06:28:19;98612.31;;;18.45;100.00
39897;BME280;25567;48.276;14.242;2022-08-03T06:31:21;98615.13;;;18.64;100.00
39897;BME280;25567;48.276;14.242;2022-08-03T06:34:15;98614.81;;;18.76;100.00
39897;BME280;25567;48.276;14.242;2022-08-03T06:37:06;98609.88;;;18.88;100.00
39897;BME280;25567;48.276;14.242;2022-08-03T06:40:01;98619.31;;;18.91;100.00
39897;BME280;25567;48.276;14.242;2022-08-03T06:42:45;98608.19;;;19.03;100.00
39897;BME280;25567;48.276;14.242;2022-08-03T06:45:33;98618.84;;;19.18;100.00
39897;BME280;25567;48.276;14.242;2022-08-03T06:48:12;98616.59;;;19.30;100.00
39897;BME280;25567;48.276;14.242;2022-08-03T06:50:59;98610.59;;;19.39;98.46
39897;BME280;25567;48.276;14.242;2022-08-03T06:53:39;98618.00;;;19.52;99.65
39897;BME280;25567;48.276;14.242;2022-08-03T06:56:26;98619.84;;;19.57;96.75
39897;BME280;25567;48.276;14.242;2022-08-03T06:59:06;98618.84;;;19.77;100.00
39897;BME280;25567;48.276;14.242;2022-08-03T07:02:14;98615.50;;;19.90;97.97
39897;BME280;25567;48.276;14.242;2022-08-03T07:04:53;98618.59;;;20.03;97.67
39897;BME280;25567;48.276;14.242;2022-08-03T07:07:48;98617.91;;;20.16;97.46
39897;BME280;25567;48.276;14.242;2022-08-03T07:10:21;98617.50;;;20.28;97.63
39897;BME280;25567;48.276;14.242;2022-08-03T07:13:15;98618.97;;;20.39;97.83
39897;BME280;25567;48.276;14.242;2022-08-03T07:15:55;98621.06;;;20.42;95.12
39897;BME280;25567;48.276;14.242;2022-08-03T07:18:42;98618.78;;;20.55;95.56
39897;BME280;25567;48.276;14.242;2022-08-03T07:21:22;98618.13;;;20.63;95.05
39897;BME280;25567;48.276;14.242;2022-08-03T07:24:16;98616.41;;;20.72;95.26
39897;BME280;25567;48.276;14.242;2022-08-03T07:26:49;98619.34;;;20.76;91.92
39897;BME280;25567;48.276;14.242;2022-08-03T07:29:43;98615.53;;;20.96;95.20
39897;BME280;25567;48.276;14.242;2022-08-03T07:32:16;98611.44;;;20.98;94.67
39897;BME280;25567;48.276;14.242;2022-08-03T07:35:10;98607.38;;;21.01;93.59
39897;BME280;25567;48.276;14.242;2022-08-03T07:37:56;98610.41;;;21.13;93.97
39897;BME280;25567;48.276;14.242;2022-08-03T07:40:50;98614.41;;;21.16;90.47
39897;BME280;25567;48.276;14.242;2022-08-03T07:43:30;98604.25;;;21.27;90.55
39897;BME280;25567;48.276;14.242;2022-08-03T07:46:17;98600.06;;;21.35;89.04
39897;BME280;25567;48.276;14.242;2022-08-03T07:48:58;98595.69;;;21.39;89.97
39897;BME280;25567;48.276;14.242;2022-08-03T07:51:45;98598.22;;;21.49;90.66
39897;BME280;25567;48.276;14.242;2022-08-03T07:54:45;98594.66;;;21.68;89.91
39897;BME280;25567;48.276;14.242;2022-08-03T07:57:33;98596.38;;;21.77;88.01
39897;BME280;25567;48.276;14.242;2022-08-03T08:00:17;98593.88;;;21.95;88.62
39897;BME280;25567;48.276;14.242;2022-08-03T08:03:04;98591.38;;;21.98;86.09
39897;BME280;25567;48.276;14.242;2022-08-03T08:05:44;98595.97;;;22.12;85.04
39897;BME280;25567;48.276;14.242;2022-08-03T08:08:32;98599.56;;;22.21;84.29
39897;BME280;25567;48.276;14.242;2022-08-03T08:11:12;98589.94;;;22.29;83.54
39897;BME280;25567;48.276;14.242;2022-08-03T08:14:11;98593.66;;;22.47;83.33
39897;BME280;25567;48.276;14.242;2022-08-03T08:16:44;98585.03;;;22.59;83.51
39897;BME280;25567;48.276;14.242;2022-08-03T08:19:42;98586.19;;;22.66;84.55
39897;BME280;25567;48.276;14.242;2022-08-03T08:22:24;98586.94;;;22.81;82.15
39897;BME280;25567;48.276;14.242;2022-08-03T08:25:18;98587.63;;;22.87;83.30
39897;BME280;25567;48.276;14.242;2022-08-03T08:27:59;98585.16;;;22.99;81.03
39897;BME280;25567;48.276;14.242;2022-08-03T08:31:11;98582.47;;;22.99;81.57
39897;BME280;25567;48.276;14.242;2022-08-03T08:33:44;98582.78;;;22.97;80.64
39897;BME280;25567;48.276;14.242;2022-08-03T08:36:43;98579.44;;;23.01;81.48
39897;BME280;25567;48.276;14.242;2022-08-03T08:39:17;98582.28;;;23.18;81.67
39897;BME280;25567;48.276;14.242;2022-08-03T08:42:11;98592.44;;;23.35;81.63
39897;BME280;25567;48.276;14.242;2022-08-03T08:44:44;98592.88;;;23.60;78.16
39897;BME280;25567;48.276;14.242;2022-08-03T08:47:40;98581.16;;;23.73;77.01
39897;BME280;25567;48.276;14.242;2022-08-03T08:50:24;98583.25;;;23.85;77.95
39897;BME280;25567;48.276;14.242;2022-08-03T08:53:18;98575.19;;;23.94;77.43
39897;BME280;25567;48.276;14.242;2022-08-03T08:56:01;98586.19;;;23.97;74.37
39897;BME280;25567;48.276;14.242;2022-08-03T08:58:57;98580.31;;;24.04;75.40
39897;BME280;25567;48.276;14.242;2022-08-03T09:01:30;98583.84;;;24.13;75.93
39897;BME280;25567;48.276;14.242;2022-08-03T09:04:26;98576.53;;;24.23;75.42
39897;BME280;25567;48.276;14.242;2022-08-03T09:07:07;98574.16;;;24.21;75.77
39897;BME280;25567;48.276;14.242;2022-08-03T09:10:00;98574.63;;;24.32;76.52
39897;BME280;25567;48.276;14.242;2022-08-03T09:12:46;98569.38;;;24.36;72.96
39897;BME280;25567;48.276;14.242;2022-08-03T09:15:34;98573.22;;;24.43;71.29
39897;BME280;25567;48.276;14.242;2022-08-03T09:18:31;98575.31;;;24.55;75.20
39897;BME280;25567;48.276;14.242;2022-08-03T09:21:27;98576.00;;;24.70;73.61
39897;BME280;25567;48.276;14.242;2022-08-03T09:24:08;98568.94;;;24.86;71.69
39897;BME280;25567;48.276;14.242;2022-08-03T09:27:21;98571.34;;;24.96;71.64
39897;BME280;25567;48.276;14.242;2022-08-03T09:30:00;98567.19;;;24.99;72.42
39897;BME280;25567;48.276;14.242;2022-08-03T09:33:14;98571.81;;;24.98;71.73
39897;BME280;25567;48.276;14.242;2022-08-03T09:35:49;98566.53;;;25.11;72.23
39897;BME280;25567;48.276;14.242;2022-08-03T09:39:00;98569.09;;;25.16;69.13
39897;BME280;25567;48.276;14.242;2022-08-03T09:41:44;98566.16;;;25.30;69.29
39897;BME280;25567;48.276;14.242;2022-08-03T09:44:35;98563.91;;;25.41;69.77
39897;BME280;25567;48.276;14.242;2022-08-03T09:47:27;98561.34;;;25.44;69.30
39897;BME280;25567;48.276;14.242;2022-08-03T09:50:23;98559.41;;;25.54;69.62
39897;BME280;25567;48.276;14.242;2022-08-03T09:53:03;98553.16;;;25.62;70.56
39897;BME280;25567;48.276;14.242;2022-08-03T09:55:59;98559.19;;;25.68;68.48
39897;BME280;25567;48.276;14.242;2022-08-03T09:58:59;98553.53;;;25.81;65.71
39897;BME280;25567;48.276;14.242;2022-08-03T10:01:47;98549.19;;;25.89;67.30
39897;BME280;25567;48.276;14.242;2022-08-03T10:04:27;98551.91;;;25.89;65.65
39897;BME280;25567;48.276;14.242;2022-08-03T10:07:23;98553.44;;;25.99;66.65
39897;BME280;25567;48.276;14.242;2022-08-03T10:09:58;98534.41;;;26.08;64.73
39897;BME280;25567;48.276;14.242;2022-08-03T10:13:12;98537.38;;;26.15;66.66
39897;BME280;25567;48.276;14.242;2022-08-03T10:15:46;98538.06;;;26.12;66.39
39897;BME280;25567;48.276;14.242;2022-08-03T10:19:01;98535.94;;;26.18;66.26
39897;BME280;25567;48.276;14.242;2022-08-03T10:21:47;98535.59;;;26.19;67.23
39897;BME280;25567;48.276;14.242;2022-08-03T10:24:38;98530.16;;;26.19;65.16
39897;BME280;25567;48.276;14.242;2022-08-03T10:27:21;98536.22;;;26.25;64.79
39897;BME280;25567;48.276;14.242;2022-08-03T10:30:15;98529.53;;;26.22;65.52
39897;BME280;25567;48.276;14.242;2022-08-03T10:33:03;98524.41;;;26.21;64.80
39897;BME280;25567;48.276;14.242;2022-08-03T10:36:18;98524.66;;;26.49;64.08
39897;BME280;25567;48.276;14.242;2022-08-03T10:38:55;98515.94;;;26.43;64.68
39897;BME280;25567;48.276;14.242;2022-08-03T10:41:55;98519.69;;;26.51;63.60
39897;BME280;25567;48.276;14.242;2022-08-03T10:44:37;98514.72;;;26.53;64.02
39897;BME280;25567;48.276;14.242;2022-08-03T10:47:33;98511.53;;;26.51;63.88
39897;BME280;25567;48.276;14.242;2022-08-03T10:50:07;98508.50;;;26.53;63.42
39897;BME280;25567;48.276;14.242;2022-08-03T10:53:03;98508.16;;;26.54;62.43
39897;BME280;25567;48.276;14.242;2022-08-03T10:55:42;98501.97;;;26.66;62.78
39897;BME280;25567;48.276;14.242;2022-08-03T10:58:55;98501.16;;;26.87;62.11
39897;BME280;25567;48.276;14.242;2022-08-03T11:01:49;98507.97;;;26.93;61.89
39897;BME280;25567;48.276;14.242;2022-08-03T11:04:43;98497.78;;;27.02;59.29
39897;BME280;25567;48.276;14.242;2022-08-03T11:07:19;98502.13;;;27.16;61.55
39897;BME280;25567;48.276;14.242;2022-08-03T11:10:29;98493.47;;;27.47;60.00
39897;BME280;25567;48.276;14.242;2022-08-03T11:13:06;98492.97;;;27.33;61.21
39897;BME280;25567;48.276;14.242;2022-08-03T11:15:52;98489.47;;;27.44;56.43
39897;BME280;25567;48.276;14.242;2022-08-03T11:18:55;98492.41;;;27.52;60.71
39897;BME280;25567;48.276;14.242;2022-08-03T11:21:51;98491.31;;;27.40;59.11
39897;BME280;25567;48.276;14.242;2022-08-03T11:27:21;98482.34;;;27.52;59.86
39897;BME280;25567;48.276;14.242;2022-08-03T11:32:59;98490.47;;;27.89;55.53
39897;BME280;25567;48.276;14.242;2022-08-03T11:35:58;98492.75;;;27.87;55.24
39897;BME280;25567;48.276;14.242;2022-08-03T11:44:58;98475.22;;;28.01;57.12
39897;BME280;25567;48.276;14.242;2022-08-03T11:47:53;98478.22;;;28.08;55.19
39897;BME280;25567;48.276;14.242;2022-08-03T11:50:35;98469.09;;;28.16;53.53
39897;BME280;25567;48.276;14.242;2022-08-03T11:53:24;98469.88;;;28.29;53.01
39897;BME280;25567;48.276;14.242;2022-08-03T11:56:04;98477.22;;;28.28;51.66
39897;BME280;25567;48.276;14.242;2022-08-03T11:58:55;98474.13;;;28.42;55.77
39897;BME280;25567;48.276;14.242;2022-08-03T12:02:05;98475.41;;;28.33;56.35
39897;BME280;25567;48.276;14.242;2022-08-03T12:04:56;98465.84;;;28.39;53.27
39897;BME280;25567;48.276;14.242;2022-08-03T12:07:45;98462.22;;;28.35;54.21
39897;BME280;25567;48.276;14.242;2022-08-03T12:10:48;98467.22;;;28.33;54.10
39897;BME280;25567;48.276;14.242;2022-08-03T12:13:39;98468.56;;;28.39;53.29
39897;BME280;25567;48.276;14.242;2022-08-03T12:16:49;98467.38;;;28.24;52.16
39897;BME280;25567;48.276;14.242;2022-08-03T12:19:41;98465.25;;;28.17;54.46
39897;BME280;25567;48.276;14.242;2022-08-03T12:22:38;98464.47;;;28.45;54.06
39897;BME280;25567;48.276;14.242;2022-08-03T12:28:19;98456.13;;;28.82;56.56
39897;BME280;25567;48.276;14.242;2022-08-03T12:31:09;98449.47;;;28.67;51.87
39897;BME280;25567;48.276;14.242;2022-08-03T12:34:04;98451.59;;;28.74;49.24
39897;BME280;25567;48.276;14.242;2022-08-03T12:36:58;98447.03;;;28.78;52.46
39897;BME280;25567;48.276;14.242;2022-08-03T12:39:32;98450.72;;;28.86;51.47
39897;BME280;25567;48.276;14.242;2022-08-03T12:42:44;98444.75;;;28.80;53.33
39897;BME280;25567;48.276;14.242;2022-08-03T12:45:27;98438.25;;;28.85;52.48
39897;BME280;25567;48.276;14.242;2022-08-03T12:48:22;98430.06;;;29.01;52.48
39897;BME280;25567;48.276;14.242;2022-08-03T12:51:09;98433.75;;;29.08;51.36
39897;BME280;25567;48.276;14.242;2022-08-03T12:53:57;98427.25;;;29.13;51.79
39897;BME280;25567;48.276;14.242;2022-08-03T12:57:11;98425.13;;;29.22;49.20
39897;BME280;25567;48.276;14.242;2022-08-03T13:00:10;98426.25;;;29.21;46.82
39897;BME280;25567;48.276;14.242;2022-08-03T13:03:04;98419.91;;;29.17;49.33
39897;BME280;25567;48.276;14.242;2022-08-03T13:06:14;98415.34;;;29.21;47.37
39897;BME280;25567;48.276;14.242;2022-08-03T13:09:04;98414.13;;;29.35;48.60
39897;BME280;25567;48.276;14.242;2022-08-03T13:11:37;98416.22;;;29.25;50.70
39897;BME280;25567;48.276;14.242;2022-08-03T13:14:42;98405.81;;;29.31;48.03
39897;BME280;25567;48.276;14.242;2022-08-03T13:17:25;98404.50;;;29.25;45.44
39897;BME280;25567;48.276;14.242;2022-08-03T13:20:19;98410.25;;;29.36;45.78
39897;BME280;25567;48.276;14.242;2022-08-03T13:23:00;98408.47;;;29.43;46.64
39897;BME280;25567;48.276;14.242;2022-08-03T13:26:01;98406.84;;;29.58;47.26
39897;BME280;25567;48.276;14.242;2022-08-03T13:28:41;98403.16;;;29.51;46.06
39897;BME280;25567;48.276;14.242;2022-08-03T13:31:28;98398.28;;;29.60;46.29
39897;BME280;25567;48.276;14.242;2022-08-03T13:34:22;98392.75;;;29.56;48.52
39897;BME280;25567;48.276;14.242;2022-08-03T13:37:09;98396.91;;;29.50;47.14
39897;BME280;25567;48.276;14.242;2022-08-03T13:39:51;98392.31;;;29.54;47.70
39897;BME280;25567;48.276;14.242;2022-08-03T13:42:45;98382.69;;;29.60;46.89
39897;BME280;25567;48.276;14.242;2022-08-03T13:45:25;98380.28;;;29.59;43.99
39897;BME280;25567;48.276;14.242;2022-08-03T13:48:19;98382.41;;;29.66;45.73
39897;BME280;25567;48.276;14.242;2022-08-03T13:51:09;98378.78;;;29.61;42.99
39897;BME280;25567;48.276;14.242;2022-08-03T13:54:03;98376.50;;;29.64;46.61
39897;BME280;25567;48.276;14.242;2022-08-03T13:56:36;98371.53;;;29.69;45.31
39897;BME280;25567;48.276;14.242;2022-08-03T13:59:56;98369.56;;;29.86;43.37
39897;BME280;25567;48.276;14.242;2022-08-03T14:02:36;98368.31;;;29.64;46.35
39897;BME280;25567;48.276;14.242;2022-08-03T14:05:30;98364.72;;;29.59;45.34
39897;BME280;25567;48.276;14.242;2022-08-03T14:08:10;98357.44;;;29.48;45.76
39897;BME280;25567;48.276;14.242;2022-08-03T14:11:05;98362.25;;;29.54;44.55
39897;BME280;25567;48.276;14.242;2022-08-03T14:13:38;98358.22;;;29.48;43.48
39897;BME280;25567;48.276;14.242;2022-08-03T14:16:32;98359.97;;;29.56;42.57
39897;BME280;25567;48.276;14.242;2022-08-03T14:19:05;98359.25;;;29.59;45.25
39897;BME280;25567;48.276;14.242;2022-08-03T14:22:04;98360.25;;;29.51;44.76
39897;BME280;25567;48.276;14.242;2022-08-03T14:24:39;98353.47;;;29.45;42.81
39897;BME280;25567;48.276;14.242;2022-08-03T14:27:33;98350.75;;;29.45;44.88
39897;BME280;25567;48.276;14.242;2022-08-03T14:30:13;98358.94;;;29.45;44.86
39897;BME280;25567;48.276;14.242;2022-08-03T14:33:07;98352.25;;;29.42;43.75
39897;BME280;25567;48.276;14.242;2022-08-03T14:35:47;98352.47;;;29.53;41.32
39897;BME280;25567;48.276;14.242;2022-08-03T14:38:34;98349.91;;;29.60;44.29
39897;BME280;25567;48.276;14.242;2022-08-03T14:41:23;98349.69;;;29.69;45.29
39897;BME280;25567;48.276;14.242;2022-08-03T14:44:17;98343.91;;;29.55;44.18
39897;BME280;25567;48.276;14.242;2022-08-03T14:46:57;98348.25;;;29.56;44.93
39897;BME280;25567;48.276;14.242;2022-08-03T14:49:44;98349.53;;;29.62;43.04
39897;BME280;25567;48.276;14.242;2022-08-03T14:52:44;98345.22;;;29.61;41.56
39897;BME280;25567;48.276;14.242;2022-08-03T14:55:44;98340.97;;;29.64;44.53
39897;BME280;25567;48.276;14.242;2022-08-03T14:58:25;98342.22;;;29.66;44.95
39897;BME280;25567;48.276;14.242;2022-08-03T15:01:19;98341.19;;;29.55;45.28
39897;BME280;25567;48.276;14.242;2022-08-03T15:04:19;98335.81;;;29.58;44.01